createdAt,value
2022-12-25T00:01:33.555Z,61.42
2022-12-25T00:04:01.257Z,127.28
2022-12-25T00:06:28.680Z,61.03
2022-12-25T00:08:56.008Z,89.55
2022-12-25T00:11:23.424Z,77.78
2022-12-25T00:13:51.204Z,76.00
2022-12-25T00:16:22.677Z,133.82
2022-12-25T00:18:51.495Z,48.08
2022-12-25T00:21:20.723Z,68.72
2022-12-25T00:23:48.686Z,53.05
2022-12-25T00:26:17.923Z,243.38
2022-12-25T00:28:47.159Z,79.15
2022-12-25T00:31:22.531Z,65.45
2022-12-25T00:33:51.434Z,85.60
2022-12-25T00:36:22.040Z,73.43
2022-12-25T00:38:49.475Z,78.15
2022-12-25T00:41:39.425Z,79.32
2022-12-25T00:44:07.876Z,66.25
2022-12-25T00:46:35.641Z,61.50
2022-12-25T00:49:03.734Z,61.85
2022-12-25T00:51:31.012Z,76.20
2022-12-25T00:53:58.651Z,83.25
2022-12-25T00:56:26.085Z,86.25
2022-12-25T00:58:54.354Z,61.95
2022-12-25T01:01:21.925Z,83.65
2022-12-25T01:03:50.160Z,108.63
2022-12-25T01:06:17.640Z,140.32
2022-12-25T01:09:04.796Z,113.97
2022-12-25T01:11:34.383Z,67.93
2022-12-25T01:14:02.033Z,107.45
2022-12-25T01:16:29.722Z,108.88
2022-12-25T01:18:57.253Z,101.35
2022-12-25T01:21:24.713Z,193.45
2022-12-25T01:23:53.595Z,93.85
2022-12-25T01:26:23.838Z,117.80
2022-12-25T01:28:51.890Z,120.82
2022-12-25T01:31:24.494Z,117.13
2022-12-25T01:33:53.016Z,140.13
2022-12-25T01:36:23.286Z,59.78
2022-12-25T01:38:51.925Z,148.52
2022-12-25T01:41:22.328Z,52.45
2022-12-25T01:44:01.630Z,111.35
2022-12-25T01:46:30.152Z,61.90
2022-12-25T01:49:01.956Z,63.58
2022-12-25T01:51:35.644Z,163.68
2022-12-25T01:54:07.542Z,95.20
2022-12-25T01:56:37.251Z,216.88
2022-12-25T01:59:08.638Z,40.58
2022-12-25T02:01:36.594Z,70.03
2022-12-25T02:04:38.858Z,94.85
2022-12-25T02:07:13.828Z,73.95
2022-12-25T02:09:41.902Z,91.90
2022-12-25T02:12:15.263Z,98.75
2022-12-25T02:14:42.662Z,89.68
2022-12-25T02:17:30.130Z,118.40
2022-12-25T02:20:03.906Z,95.25
2022-12-25T02:23:18.525Z,77.47
2022-12-25T02:26:07.789Z,91.88
2022-12-25T02:28:45.443Z,85.03
2022-12-25T02:31:27.464Z,85.63
2022-12-25T02:34:12.079Z,93.25
2022-12-25T02:36:53.978Z,86.32
2022-12-25T02:39:59.281Z,77.60
2022-12-25T02:42:56.299Z,71.22
2022-12-25T02:46:07.911Z,73.07
2022-12-25T02:49:00.500Z,76.55
2022-12-25T02:51:50.888Z,71.07
2022-12-25T02:54:42.828Z,73.53
2022-12-25T02:57:31.643Z,63.53
2022-12-25T03:00:19.728Z,74.80
2022-12-25T03:03:07.626Z,83.18
2022-12-25T03:05:57.494Z,89.90
2022-12-25T03:08:29.797Z,77.43
2022-12-25T03:11:29.869Z,72.18
2022-12-25T03:14:26.929Z,72.70
2022-12-25T03:16:58.989Z,85.05
2022-12-25T03:19:48.999Z,83.85
2022-12-25T03:22:48.373Z,72.80
2022-12-25T03:25:35.922Z,79.78
2022-12-25T03:28:03.843Z,90.20
2022-12-25T03:31:12.631Z,79.00
2022-12-25T03:34:20.065Z,85.05
2022-12-25T03:37:20.851Z,72.72
2022-12-25T03:40:30.631Z,88.78
2022-12-25T03:43:25.772Z,69.63
2022-12-25T03:46:17.866Z,85.13
2022-12-25T03:49:08.731Z,76.53
2022-12-25T03:54:46.636Z,80.60
2022-12-25T04:00:35.680Z,66.20
2022-12-25T04:03:38.536Z,86.50
2022-12-25T04:06:24.899Z,94.05
2022-12-25T04:09:10.604Z,81.32
2022-12-25T04:12:02.165Z,68.35
2022-12-25T04:14:48.816Z,75.78
2022-12-25T04:17:54.587Z,90.95
2022-12-25T04:20:40.936Z,86.68
2022-12-25T04:23:27.065Z,88.57
2022-12-25T04:26:15.633Z,80.53
2022-12-25T04:29:01.826Z,81.75
2022-12-25T04:31:47.417Z,78.00
2022-12-25T04:34:33.067Z,72.05
2022-12-25T04:37:00.331Z,70.25
2022-12-25T04:39:27.575Z,91.70
2022-12-25T04:41:54.815Z,78.57
2022-12-25T04:44:22.223Z,81.13
2022-12-25T04:46:51.145Z,72.15
2022-12-25T04:49:24.544Z,83.03
2022-12-25T04:51:51.884Z,96.03
2022-12-25T04:54:19.265Z,61.22
2022-12-25T04:56:46.617Z,79.28
2022-12-25T04:59:14.096Z,78.40
2022-12-25T05:01:41.482Z,80.53
2022-12-25T05:04:08.836Z,94.10
2022-12-25T05:06:37.219Z,81.35
2022-12-25T05:09:04.633Z,95.30
2022-12-25T05:11:31.995Z,96.72
2022-12-25T05:14:00.221Z,99.38
2022-12-25T05:16:28.099Z,93.68
2022-12-25T05:18:55.499Z,108.90
2022-12-25T05:21:23.348Z,88.38
2022-12-25T05:23:54.140Z,98.38
2022-12-25T05:28:50.728Z,127.22
2022-12-25T05:31:18.958Z,108.38
2022-12-25T05:33:50.343Z,95.30
2022-12-25T05:36:17.893Z,103.45
2022-12-25T05:38:45.319Z,97.47
2022-12-25T05:41:12.732Z,98.78
2022-12-25T05:43:39.980Z,122.50
2022-12-25T05:46:09.281Z,121.78
2022-12-25T05:48:37.895Z,112.40
2022-12-25T05:51:10.516Z,133.55
2022-12-25T05:53:38.591Z,117.60
2022-12-25T05:56:09.264Z,138.55
2022-12-25T05:58:38.448Z,125.65
2022-12-25T06:01:23.241Z,143.80
2022-12-25T06:03:51.210Z,158.75
2022-12-25T06:06:19.176Z,129.05
2022-12-25T06:08:46.584Z,159.02
2022-12-25T06:11:15.019Z,161.65
2022-12-25T06:13:42.551Z,162.52
2022-12-25T06:16:13.411Z,140.10
2022-12-25T06:18:44.644Z,166.65
2022-12-25T06:21:14.463Z,188.93
2022-12-25T06:23:42.830Z,169.57
2022-12-25T06:26:14.389Z,177.80
2022-12-25T06:28:43.454Z,189.80
2022-12-25T06:31:19.305Z,169.73
2022-12-25T06:33:47.208Z,176.23
2022-12-25T06:36:17.500Z,213.52
2022-12-25T06:38:45.185Z,178.20
2022-12-25T06:41:15.727Z,200.48
2022-12-25T06:43:43.040Z,180.20
2022-12-25T06:46:12.390Z,155.95
2022-12-25T06:48:41.363Z,181.85
2022-12-25T06:51:08.609Z,174.88
2022-12-25T06:53:40.243Z,176.73
2022-12-25T06:56:10.545Z,147.95
2022-12-25T06:58:37.811Z,117.83
2022-12-25T07:01:24.398Z,171.32
2022-12-25T07:03:55.277Z,145.95
2022-12-25T07:08:49.902Z,143.50
2022-12-25T07:11:17.902Z,163.05
2022-12-25T07:13:45.400Z,140.68
2022-12-25T07:16:13.284Z,131.93
2022-12-25T07:18:41.421Z,125.28
2022-12-25T07:21:11.861Z,126.88
2022-12-25T07:23:39.377Z,119.72
2022-12-25T07:26:07.095Z,160.95
2022-12-25T07:28:35.186Z,128.25
2022-12-25T07:31:08.433Z,151.43
2022-12-25T07:33:36.396Z,115.95
2022-12-25T07:36:05.553Z,187.07
2022-12-25T07:38:32.933Z,141.18
2022-12-25T07:41:00.696Z,185.45
2022-12-25T07:43:28.234Z,125.57
2022-12-25T07:45:57.888Z,145.50
2022-12-25T07:48:29.021Z,140.27
2022-12-25T07:51:05.128Z,141.38
2022-12-25T07:53:33.168Z,120.85
2022-12-25T07:56:02.419Z,138.00
2022-12-25T07:58:30.660Z,114.93
2022-12-25T08:01:06.409Z,116.97
2022-12-25T08:03:35.549Z,116.03
2022-12-25T08:06:05.551Z,119.72
2022-12-25T08:08:33.962Z,104.10
2022-12-25T08:11:01.266Z,104.68
2022-12-25T08:13:32.495Z,94.05
2022-12-25T08:16:05.537Z,89.75
2022-12-25T08:18:32.796Z,101.47
2022-12-25T08:21:05.294Z,106.10
2022-12-25T08:23:35.435Z,98.53
2022-12-25T08:26:05.591Z,106.28
2022-12-25T08:28:33.649Z,113.18
2022-12-25T08:31:21.000Z,110.57
2022-12-25T08:33:49.979Z,104.95
2022-12-25T08:36:18.562Z,104.78
2022-12-25T08:38:46.266Z,117.63
2022-12-25T08:41:14.911Z,93.68
2022-12-25T08:43:43.160Z,100.40
2022-12-25T08:46:11.058Z,103.97
2022-12-25T08:48:38.698Z,98.38
2022-12-25T08:51:11.305Z,95.75
2022-12-25T08:53:38.747Z,86.65
2022-12-25T08:56:06.421Z,92.15
2022-12-25T08:58:34.598Z,81.32
2022-12-25T09:01:02.026Z,85.55
2022-12-25T09:03:32.248Z,117.30
2022-12-25T09:06:05.512Z,84.80
2022-12-25T09:08:33.576Z,78.30
2022-12-25T09:11:05.991Z,87.45
2022-12-25T09:13:33.936Z,73.70
2022-12-25T09:16:06.239Z,58.72
2022-12-25T09:18:34.682Z,61.22
2022-12-25T09:21:04.663Z,58.97
2022-12-25T09:23:33.591Z,65.88
2022-12-25T09:26:06.717Z,54.08
2022-12-25T09:28:34.451Z,54.55
2022-12-25T09:31:02.596Z,53.35
2022-12-25T09:33:29.969Z,65.95
2022-12-25T09:35:59.601Z,68.15
2022-12-25T09:38:29.251Z,58.67
2022-12-25T09:41:09.318Z,55.33
2022-12-25T09:43:47.203Z,54.88
2022-12-25T09:46:20.475Z,49.80
2022-12-25T09:49:21.116Z,49.75
2022-12-25T09:51:54.992Z,44.13
2022-12-25T09:54:34.291Z,40.17
2022-12-25T09:57:01.941Z,42.72
2022-12-25T09:59:29.390Z,48.25
2022-12-25T10:02:15.414Z,36.53
2022-12-25T10:04:54.854Z,38.03
2022-12-25T10:08:02.202Z,37.97
2022-12-25T10:10:47.290Z,29.38
2022-12-25T10:13:26.904Z,32.00
2022-12-25T10:16:16.130Z,41.90
2022-12-25T10:18:53.753Z,37.42
2022-12-25T10:21:23.641Z,32.30
2022-12-25T10:24:13.338Z,26.57
2022-12-25T10:26:41.039Z,28.60
2022-12-25T10:29:15.387Z,31.33
2022-12-25T10:31:46.880Z,27.40
2022-12-25T10:34:16.161Z,23.83
2022-12-25T10:36:47.360Z,29.08
2022-12-25T10:39:19.864Z,22.83
2022-12-25T10:42:10.755Z,23.73
2022-12-25T10:47:14.992Z,24.55
2022-12-25T10:49:49.825Z,25.40
2022-12-25T10:52:28.427Z,30.35
2022-12-25T10:54:58.025Z,32.58
2022-12-25T10:57:29.336Z,26.27
2022-12-25T10:59:59.564Z,23.95
2022-12-25T11:02:47.751Z,26.38
2022-12-25T11:05:31.322Z,28.75
2022-12-25T11:08:02.222Z,19.25
2022-12-25T11:10:41.471Z,25.88
2022-12-25T11:13:33.961Z,20.38
2022-12-25T11:16:15.472Z,21.77
2022-12-25T11:19:02.915Z,25.10
2022-12-25T11:21:34.576Z,24.23
2022-12-25T11:27:03.097Z,27.20
2022-12-25T11:30:21.291Z,22.55
2022-12-25T11:32:57.167Z,15.57
2022-12-25T11:35:33.309Z,18.98
2022-12-25T11:38:06.010Z,20.35
2022-12-25T11:41:00.456Z,21.13
2022-12-25T11:44:06.167Z,23.83
2022-12-25T11:46:53.901Z,19.75
2022-12-25T11:49:40.171Z,16.38
2022-12-25T11:52:19.349Z,17.27
2022-12-25T11:55:46.481Z,20.80
2022-12-25T11:58:37.074Z,17.10
2022-12-25T12:01:26.697Z,20.00
2022-12-25T12:07:03.825Z,27.98
2022-12-25T12:10:09.924Z,23.08
2022-12-25T12:13:15.188Z,29.40
2022-12-25T12:15:57.524Z,27.48
2022-12-25T12:18:51.956Z,29.20
2022-12-25T12:21:29.256Z,22.98
2022-12-25T12:24:09.414Z,27.50
2022-12-25T12:26:41.094Z,26.15
2022-12-25T12:29:27.461Z,34.28
2022-12-25T12:32:00.230Z,21.17
2022-12-25T12:34:42.390Z,29.73
2022-12-25T12:37:35.829Z,29.50
2022-12-25T12:40:11.240Z,25.30
2022-12-25T12:42:50.958Z,24.77
2022-12-25T12:45:28.303Z,26.95
2022-12-25T12:47:57.053Z,76.25
2022-12-25T12:50:45.545Z,89.47
2022-12-25T12:53:30.140Z,42.58
2022-12-25T12:56:32.254Z,30.50
2022-12-25T12:59:10.348Z,33.85
2022-12-25T13:01:48.158Z,24.08
2022-12-25T13:04:25.703Z,21.80
2022-12-25T13:06:55.695Z,22.33
2022-12-25T13:10:15.605Z,21.45
2022-12-25T13:13:00.581Z,27.35
2022-12-25T13:15:34.141Z,23.95
2022-12-25T13:18:11.091Z,21.10
2022-12-25T13:20:58.884Z,22.77
2022-12-25T13:23:45.337Z,23.92
2022-12-25T13:26:17.420Z,24.90
2022-12-25T13:28:49.777Z,26.23
2022-12-25T13:31:37.333Z,30.90
2022-12-25T13:34:18.375Z,27.48
2022-12-25T13:36:48.466Z,26.83
2022-12-25T13:39:19.987Z,23.75
2022-12-25T13:42:08.355Z,21.98
2022-12-25T13:45:09.156Z,22.70
2022-12-25T13:47:49.937Z,22.20
2022-12-25T13:50:25.256Z,20.67
2022-12-25T13:53:02.120Z,22.13
2022-12-25T13:55:33.902Z,23.98
2022-12-25T13:58:39.766Z,22.40
2022-12-25T14:01:07.600Z,27.65
2022-12-25T14:03:40.097Z,24.20
2022-12-25T14:06:20.763Z,25.05
2022-12-25T14:08:48.923Z,18.13
2022-12-25T14:11:20.586Z,19.90
2022-12-25T14:13:51.316Z,24.33
2022-12-25T14:16:20.902Z,27.90
2022-12-25T14:19:01.083Z,25.70
2022-12-25T14:21:41.805Z,23.90
2022-12-25T14:26:46.066Z,21.85
2022-12-25T14:29:28.488Z,30.50
2022-12-25T14:32:08.385Z,21.67
2022-12-25T14:34:37.925Z,20.55
2022-12-25T14:37:23.386Z,15.65
2022-12-25T14:40:03.131Z,29.70
2022-12-25T14:42:33.418Z,16.77
2022-12-25T14:47:53.949Z,34.95
2022-12-25T14:50:41.210Z,19.63
2022-12-25T14:53:24.957Z,20.13
2022-12-25T14:55:55.864Z,17.90
2022-12-25T14:58:54.454Z,22.27
2022-12-25T15:01:45.633Z,21.65
2022-12-25T15:04:18.352Z,19.63
2022-12-25T15:07:12.086Z,23.17
2022-12-25T15:09:40.651Z,23.25
2022-12-25T15:12:09.576Z,21.17
2022-12-25T15:14:42.538Z,21.45
2022-12-25T15:17:24.086Z,27.02
2022-12-25T15:19:55.952Z,22.35
2022-12-25T15:22:54.008Z,20.23
2022-12-25T15:25:22.198Z,19.73
2022-12-25T15:30:23.856Z,26.05
2022-12-25T15:33:06.010Z,21.73
2022-12-25T15:35:36.515Z,17.35
2022-12-25T15:38:03.875Z,23.15
2022-12-25T15:40:31.209Z,21.00
2022-12-25T15:42:59.979Z,25.77
2022-12-25T15:45:33.170Z,19.10
2022-12-25T15:48:11.148Z,22.73
2022-12-25T15:50:40.434Z,27.55
2022-12-25T15:53:12.909Z,23.40
2022-12-25T15:55:40.437Z,23.63
2022-12-25T15:58:13.421Z,26.90
2022-12-25T16:00:43.371Z,25.25
2022-12-25T16:03:19.101Z,26.85
2022-12-25T16:05:46.636Z,21.98
2022-12-25T16:08:15.415Z,25.50
2022-12-25T16:10:52.819Z,35.83
2022-12-25T16:13:28.539Z,29.67
2022-12-25T16:16:00.462Z,28.13
2022-12-25T16:18:35.279Z,28.38
2022-12-25T16:21:03.608Z,19.88
2022-12-25T16:23:32.056Z,25.88
2022-12-25T16:26:02.120Z,24.77
2022-12-25T16:28:33.281Z,27.25
2022-12-25T16:31:01.003Z,28.50
2022-12-25T16:33:34.610Z,30.67
2022-12-25T16:36:29.139Z,21.73
2022-12-25T16:39:04.594Z,20.00
2022-12-25T16:41:46.222Z,20.17
2022-12-25T16:44:14.750Z,24.77
2022-12-25T16:46:44.083Z,27.27
2022-12-25T16:49:20.011Z,27.48
2022-12-25T16:51:48.113Z,25.00
2022-12-25T16:54:15.554Z,25.90
2022-12-25T16:56:44.541Z,23.15
2022-12-25T16:59:20.959Z,28.60
2022-12-25T17:01:51.368Z,25.10
2022-12-25T17:04:22.205Z,32.00
2022-12-25T17:06:52.083Z,30.80
2022-12-25T17:09:23.120Z,25.70
2022-12-25T17:11:51.763Z,34.00
2022-12-25T17:14:20.454Z,29.77
2022-12-25T17:16:49.418Z,31.58
2022-12-25T17:19:31.610Z,35.47
2022-12-25T17:22:00.276Z,31.05
2022-12-25T17:24:29.305Z,34.95
2022-12-25T17:27:00.057Z,30.85
2022-12-25T17:29:28.146Z,39.78
2022-12-25T17:31:55.946Z,41.00
2022-12-25T17:34:23.466Z,44.10
2022-12-25T17:36:51.490Z,47.28
2022-12-25T17:39:19.100Z,39.40
2022-12-25T17:41:48.648Z,45.75
2022-12-25T17:44:16.795Z,35.58
2022-12-25T17:46:45.594Z,44.47
2022-12-25T17:49:19.163Z,43.15
2022-12-25T17:51:47.401Z,51.45
2022-12-25T17:54:14.811Z,61.47
2022-12-25T17:56:42.532Z,51.53
2022-12-25T17:59:18.227Z,88.75
2022-12-25T18:01:50.177Z,80.07
2022-12-25T18:04:21.294Z,80.68
2022-12-25T18:06:49.761Z,135.48
2022-12-25T18:09:19.931Z,65.53
2022-12-25T18:11:55.063Z,59.45
2022-12-25T18:14:23.285Z,57.13
2022-12-25T18:16:53.708Z,44.80
2022-12-25T18:19:29.665Z,107.70
2022-12-25T18:21:57.749Z,70.65
2022-12-25T18:24:26.199Z,57.45
2022-12-25T18:26:53.641Z,111.10
2022-12-25T18:29:22.037Z,84.68
2022-12-25T18:31:50.856Z,53.85
2022-12-25T18:34:18.864Z,70.80
2022-12-25T18:36:54.395Z,56.65
2022-12-25T18:39:24.385Z,39.47
2022-12-25T18:42:10.174Z,95.85
2022-12-25T18:44:41.077Z,69.50
2022-12-25T18:47:10.916Z,49.97
2022-12-25T18:49:39.702Z,147.03
2022-12-25T18:52:49.713Z,93.25
2022-12-25T18:55:00.908Z,88.25
2022-12-25T18:57:34.372Z,37.00
2022-12-25T19:00:06.170Z,78.78
2022-12-25T19:02:37.371Z,65.68
2022-12-25T19:07:50.603Z,68.03
2022-12-25T19:10:18.071Z,65.75
2022-12-25T19:12:45.425Z,95.00
2022-12-25T19:15:13.522Z,78.50
2022-12-25T19:17:40.905Z,57.47
2022-12-25T19:20:08.874Z,72.00
2022-12-25T19:22:36.165Z,107.35
2022-12-25T19:25:04.043Z,57.67
2022-12-25T19:27:31.485Z,88.45
2022-12-25T19:29:59.288Z,105.78
2022-12-25T19:32:26.546Z,107.93
2022-12-25T19:34:53.993Z,117.97
2022-12-25T19:37:21.344Z,135.20
2022-12-25T19:39:50.349Z,70.88
2022-12-25T19:42:19.037Z,94.38
2022-12-25T19:44:46.660Z,73.40
2022-12-25T19:47:14.132Z,83.03
2022-12-25T19:49:43.727Z,85.07
2022-12-25T19:52:12.955Z,68.40
2022-12-25T19:54:40.156Z,54.75
2022-12-25T19:57:07.528Z,67.82
2022-12-25T19:59:35.092Z,86.85
2022-12-25T20:02:02.482Z,61.08
2022-12-25T20:04:29.858Z,63.00
2022-12-25T20:06:57.461Z,76.82
2022-12-25T20:09:24.868Z,52.10
2022-12-25T20:11:52.155Z,93.93
2022-12-25T20:14:19.808Z,61.97
2022-12-25T20:16:47.284Z,180.25
2022-12-25T20:19:15.292Z,124.78
2022-12-25T20:21:42.704Z,121.13
2022-12-25T20:24:11.451Z,53.47
2022-12-25T20:26:39.597Z,94.95
2022-12-25T20:29:07.179Z,74.25
2022-12-25T20:31:35.734Z,82.85
2022-12-25T20:34:08.469Z,109.10
2022-12-25T20:36:38.084Z,113.80
2022-12-25T20:39:09.857Z,59.50
2022-12-25T20:41:38.605Z,86.07
2022-12-25T20:44:08.492Z,93.03
2022-12-25T20:46:37.533Z,71.68
2022-12-25T20:49:05.495Z,87.95
2022-12-25T20:51:32.831Z,134.73
2022-12-25T20:54:01.347Z,102.05
2022-12-25T20:56:30.369Z,97.30
2022-12-25T20:58:59.663Z,124.40
2022-12-25T21:01:28.694Z,102.97
2022-12-25T21:03:56.571Z,86.63
2022-12-25T21:06:24.073Z,61.38
2022-12-25T21:08:52.813Z,84.55
2022-12-25T21:11:21.439Z,115.45
2022-12-25T21:13:49.724Z,101.68
2022-12-25T21:16:20.186Z,90.20
2022-12-25T21:18:48.926Z,97.93
2022-12-25T21:21:16.367Z,77.03
2022-12-25T21:23:44.457Z,102.30
2022-12-25T21:26:32.025Z,144.80
2022-12-25T21:29:02.005Z,82.80
2022-12-25T21:31:30.753Z,102.88
2022-12-25T21:34:05.976Z,160.70
2022-12-25T21:36:34.816Z,254.27
2022-12-25T21:39:08.848Z,174.73
2022-12-25T21:41:39.941Z,171.02
2022-12-25T21:44:08.065Z,148.00
2022-12-25T21:46:35.471Z,136.38
2022-12-25T21:49:03.051Z,129.80
2022-12-25T21:51:53.577Z,180.82
2022-12-25T21:56:50.420Z,176.55
2022-12-25T21:59:22.077Z,271.05
2022-12-25T22:01:51.428Z,138.70
2022-12-25T22:04:21.727Z,329.60
2022-12-25T22:07:10.104Z,322.90
2022-12-25T22:09:38.099Z,285.85
2022-12-25T22:12:30.112Z,200.57
2022-12-25T22:15:07.076Z,302.42
2022-12-25T22:17:59.769Z,316.63
2022-12-25T22:20:40.070Z,252.18
2022-12-25T22:23:07.818Z,219.25
2022-12-25T22:25:35.333Z,219.35
2022-12-25T22:28:03.634Z,246.43
2022-12-25T22:30:32.315Z,258.17
2022-12-25T22:33:02.896Z,230.45
2022-12-25T22:35:36.530Z,264.52
2022-12-25T22:38:03.883Z,190.18
2022-12-25T22:40:31.320Z,319.48
2022-12-25T22:42:58.704Z,361.25
2022-12-25T22:45:29.310Z,185.88
2022-12-25T22:47:59.363Z,155.70
2022-12-25T22:50:27.138Z,172.83
2022-12-25T22:52:54.630Z,144.55
2022-12-25T22:55:22.072Z,129.73
2022-12-25T22:57:49.500Z,99.32
2022-12-25T23:00:16.890Z,79.85
2022-12-25T23:02:44.432Z,79.22
2022-12-25T23:05:12.487Z,83.63
2022-12-25T23:07:40.662Z,79.88
2022-12-25T23:10:09.027Z,112.22
2022-12-25T23:12:54.976Z,107.28
2022-12-25T23:15:22.431Z,135.35
2022-12-25T23:18:08.433Z,91.00
2022-12-25T23:20:55.343Z,157.75
2022-12-25T23:23:42.365Z,128.05
2022-12-25T23:26:10.425Z,149.35
2022-12-25T23:28:59.638Z,138.48
2022-12-25T23:31:30.850Z,138.90
2022-12-25T23:33:58.683Z,170.90
2022-12-25T23:36:26.582Z,192.10
2022-12-25T23:38:55.344Z,192.13
2022-12-25T23:41:22.945Z,195.35
2022-12-25T23:43:50.489Z,227.18
2022-12-25T23:46:17.776Z,178.13
2022-12-25T23:48:53.202Z,182.55
2022-12-25T23:51:20.665Z,234.68
2022-12-25T23:53:48.569Z,289.60
2022-12-25T23:56:15.994Z,214.05
2022-12-25T23:58:49.430Z,204.50
